sensor_id;sensor_type;location;lat;lon;timestamp;P1;durP1;ratioP1;P2;durP2;ratioP2
77191;SDS011;66172;48.526;8.078;2023-03-04T00:01:44;38.25;;;15.50;;
77191;SDS011;66172;48.526;8.078;2023-03-04T00:04:09;42.97;;;15.55;;
77191;SDS011;66172;48.526;8.078;2023-03-04T00:06:36;40.20;;;15.13;;
77191;SDS011;66172;48.526;8.078;2023-03-04T00:09:02;37.30;;;14.98;;
77191;SDS011;66172;48.526;8.078;2023-03-04T00:11:29;37.80;;;14.98;;
77191;SDS011;66172;48.526;8.078;2023-03-04T00:13:55;39.05;;;15.60;;
77191;SDS011;66172;48.526;8.078;2023-03-04T00:16:22;39.28;;;15.02;;
77191;SDS011;66172;48.526;8.078;2023-03-04T00:18:54;68.37;;;25.83;;
77191;SDS011;66172;48.526;8.078;2023-03-04T00:21:21;50.30;;;21.65;;
77191;SDS011;66172;48.526;8.078;2023-03-04T00:23:47;45.25;;;17.27;;
77191;SDS011;66172;48.526;8.078;2023-03-04T00:26:13;52.60;;;24.35;;
77191;SDS011;66172;48.526;8.078;2023-03-04T00:28:39;48.60;;;20.77;;
77191;SDS011;66172;48.526;8.078;2023-03-04T00:31:05;43.60;;;15.63;;
77191;SDS011;66172;48.526;8.078;2023-03-04T00:33:32;39.85;;;15.70;;
77191;SDS011;66172;48.526;8.078;2023-03-04T00:35:58;38.50;;;14.90;;
77191;SDS011;66172;48.526;8.078;2023-03-04T00:38:24;40.65;;;15.18;;
77191;SDS011;66172;48.526;8.078;2023-03-04T00:40:51;40.77;;;17.27;;
77191;SDS011;66172;48.526;8.078;2023-03-04T00:43:17;46.28;;;19.40;;
77191;SDS011;66172;48.526;8.078;2023-03-04T00:45:43;42.78;;;17.92;;
77191;SDS011;66172;48.526;8.078;2023-03-04T00:48:08;56.20;;;23.80;;
77191;SDS011;66172;48.526;8.078;2023-03-04T00:50:35;47.08;;;20.52;;
77191;SDS011;66172;48.526;8.078;2023-03-04T00:53:02;61.20;;;25.73;;
77191;SDS011;66172;48.526;8.078;2023-03-04T00:55:28;52.60;;;21.35;;
77191;SDS011;66172;48.526;8.078;2023-03-04T00:57:54;59.70;;;24.15;;
77191;SDS011;66172;48.526;8.078;2023-03-04T01:00:20;63.53;;;26.00;;
77191;SDS011;66172;48.526;8.078;2023-03-04T01:02:46;55.73;;;22.30;;
77191;SDS011;66172;48.526;8.078;2023-03-04T01:05:12;55.60;;;19.88;;
77191;SDS011;66172;48.526;8.078;2023-03-04T01:07:38;48.53;;;19.52;;
77191;SDS011;66172;48.526;8.078;2023-03-04T01:10:05;69.10;;;26.35;;
77191;SDS011;66172;48.526;8.078;2023-03-04T01:12:32;67.97;;;23.50;;
77191;SDS011;66172;48.526;8.078;2023-03-04T01:14:58;69.57;;;23.95;;
77191;SDS011;66172;48.526;8.078;2023-03-04T01:17:24;89.70;;;29.55;;
77191;SDS011;66172;48.526;8.078;2023-03-04T01:19:50;49.37;;;20.00;;
77191;SDS011;66172;48.526;8.078;2023-03-04T01:22:16;48.03;;;19.30;;
77191;SDS011;66172;48.526;8.078;2023-03-04T01:24:43;54.40;;;18.80;;
77191;SDS011;66172;48.526;8.078;2023-03-04T01:27:10;49.05;;;17.70;;
77191;SDS011;66172;48.526;8.078;2023-03-04T01:29:36;52.03;;;19.17;;
77191;SDS011;66172;48.526;8.078;2023-03-04T01:32:02;47.30;;;17.60;;
77191;SDS011;66172;48.526;8.078;2023-03-04T01:34:29;42.33;;;16.42;;
77191;SDS011;66172;48.526;8.078;2023-03-04T01:36:55;49.78;;;18.77;;
77191;SDS011;66172;48.526;8.078;2023-03-04T01:39:21;46.85;;;16.13;;
77191;SDS011;66172;48.526;8.078;2023-03-04T01:41:47;44.80;;;16.23;;
77191;SDS011;66172;48.526;8.078;2023-03-04T01:44:13;39.35;;;15.20;;
77191;SDS011;66172;48.526;8.078;2023-03-04T01:46:40;40.90;;;15.52;;
77191;SDS011;66172;48.526;8.078;2023-03-04T01:49:12;42.40;;;14.73;;
77191;SDS011;66172;48.526;8.078;2023-03-04T01:51:39;37.93;;;14.53;;
77191;SDS011;66172;48.526;8.078;2023-03-04T01:54:07;42.03;;;15.00;;
77191;SDS011;66172;48.526;8.078;2023-03-04T01:56:35;36.60;;;15.00;;
77191;SDS011;66172;48.526;8.078;2023-03-04T01:59:07;41.70;;;16.65;;
77191;SDS011;66172;48.526;8.078;2023-03-04T02:01:51;39.03;;;14.60;;
77191;SDS011;66172;48.526;8.078;2023-03-04T02:04:24;41.10;;;14.93;;
77191;SDS011;66172;48.526;8.078;2023-03-04T02:06:53;37.30;;;14.73;;
77191;SDS011;66172;48.526;8.078;2023-03-04T02:09:20;36.13;;;14.68;;
77191;SDS011;66172;48.526;8.078;2023-03-04T02:11:47;37.30;;;15.68;;
77191;SDS011;66172;48.526;8.078;2023-03-04T02:14:14;36.92;;;14.70;;
77191;SDS011;66172;48.526;8.078;2023-03-04T02:16:41;38.67;;;14.97;;
77191;SDS011;66172;48.526;8.078;2023-03-04T02:21:58;38.55;;;14.52;;
77191;SDS011;66172;48.526;8.078;2023-03-04T02:24:44;30.52;;;13.20;;
77191;SDS011;66172;48.526;8.078;2023-03-04T02:27:15;38.55;;;14.30;;
77191;SDS011;66172;48.526;8.078;2023-03-04T02:29:40;40.17;;;15.03;;
77191;SDS011;66172;48.526;8.078;2023-03-04T02:32:08;37.58;;;14.30;;
77191;SDS011;66172;48.526;8.078;2023-03-04T02:34:37;41.08;;;14.30;;
77191;SDS011;66172;48.526;8.078;2023-03-04T02:37:08;35.95;;;14.45;;
77191;SDS011;66172;48.526;8.078;2023-03-04T02:39:38;39.17;;;15.07;;
77191;SDS011;66172;48.526;8.078;2023-03-04T02:42:06;39.55;;;15.00;;
77191;SDS011;66172;48.526;8.078;2023-03-04T02:44:33;40.70;;;15.10;;
77191;SDS011;66172;48.526;8.078;2023-03-04T02:47:02;36.03;;;14.68;;
77191;SDS011;66172;48.526;8.078;2023-03-04T02:49:30;40.83;;;15.38;;
77191;SDS011;66172;48.526;8.078;2023-03-04T02:51:58;39.43;;;15.37;;
77191;SDS011;66172;48.526;8.078;2023-03-04T02:54:26;39.35;;;15.93;;
77191;SDS011;66172;48.526;8.078;2023-03-04T02:56:53;40.67;;;15.60;;
77191;SDS011;66172;48.526;8.078;2023-03-04T02:59:22;42.28;;;16.52;;
77191;SDS011;66172;48.526;8.078;2023-03-04T03:01:48;43.30;;;16.45;;
77191;SDS011;66172;48.526;8.078;2023-03-04T03:04:14;45.87;;;17.73;;
77191;SDS011;66172;48.526;8.078;2023-03-04T03:06:40;44.38;;;17.02;;
77191;SDS011;66172;48.526;8.078;2023-03-04T03:09:07;46.85;;;16.35;;
77191;SDS011;66172;48.526;8.078;2023-03-04T03:11:33;47.55;;;18.25;;
77191;SDS011;66172;48.526;8.078;2023-03-04T03:13:59;45.60;;;17.97;;
77191;SDS011;66172;48.526;8.078;2023-03-04T03:16:25;50.20;;;19.35;;
77191;SDS011;66172;48.526;8.078;2023-03-04T03:18:51;47.72;;;18.63;;
77191;SDS011;66172;48.526;8.078;2023-03-04T03:21:17;50.17;;;19.20;;
77191;SDS011;66172;48.526;8.078;2023-03-04T03:23:43;44.30;;;18.00;;
77191;SDS011;66172;48.526;8.078;2023-03-04T03:26:08;49.50;;;18.85;;
77191;SDS011;66172;48.526;8.078;2023-03-04T03:28:34;55.63;;;17.90;;
77191;SDS011;66172;48.526;8.078;2023-03-04T03:31:00;52.13;;;19.67;;
77191;SDS011;66172;48.526;8.078;2023-03-04T03:33:26;52.13;;;19.05;;
77191;SDS011;66172;48.526;8.078;2023-03-04T03:35:52;54.67;;;19.85;;
77191;SDS011;66172;48.526;8.078;2023-03-04T03:38:18;51.42;;;18.85;;
77191;SDS011;66172;48.526;8.078;2023-03-04T03:40:44;56.70;;;18.77;;
77191;SDS011;66172;48.526;8.078;2023-03-04T03:43:10;53.00;;;19.45;;
77191;SDS011;66172;48.526;8.078;2023-03-04T03:45:36;53.55;;;20.30;;
77191;SDS011;66172;48.526;8.078;2023-03-04T03:48:02;53.37;;;18.97;;
77191;SDS011;66172;48.526;8.078;2023-03-04T03:50:29;49.27;;;19.13;;
77191;SDS011;66172;48.526;8.078;2023-03-04T03:52:55;52.15;;;18.23;;
77191;SDS011;66172;48.526;8.078;2023-03-04T03:55:21;59.80;;;19.55;;
77191;SDS011;66172;48.526;8.078;2023-03-04T03:57:47;49.03;;;18.45;;
77191;SDS011;66172;48.526;8.078;2023-03-04T04:00:13;51.42;;;19.27;;
77191;SDS011;66172;48.526;8.078;2023-03-04T04:02:40;54.57;;;18.47;;
77191;SDS011;66172;48.526;8.078;2023-03-04T04:05:07;48.40;;;16.48;;
77191;SDS011;66172;48.526;8.078;2023-03-04T04:07:34;43.33;;;17.52;;
77191;SDS011;66172;48.526;8.078;2023-03-04T04:10:00;43.38;;;15.68;;
77191;SDS011;66172;48.526;8.078;2023-03-04T04:12:26;44.17;;;15.10;;
77191;SDS011;66172;48.526;8.078;2023-03-04T04:14:52;43.63;;;17.20;;
77191;SDS011;66172;48.526;8.078;2023-03-04T04:17:18;43.90;;;16.83;;
77191;SDS011;66172;48.526;8.078;2023-03-04T04:19:44;43.92;;;15.85;;
77191;SDS011;66172;48.526;8.078;2023-03-04T04:22:12;48.70;;;16.40;;
77191;SDS011;66172;48.526;8.078;2023-03-04T04:24:41;48.10;;;17.20;;
77191;SDS011;66172;48.526;8.078;2023-03-04T04:27:07;44.13;;;15.52;;
77191;SDS011;66172;48.526;8.078;2023-03-04T04:29:33;43.50;;;15.68;;
77191;SDS011;66172;48.526;8.078;2023-03-04T04:31:59;44.35;;;16.17;;
77191;SDS011;66172;48.526;8.078;2023-03-04T04:34:25;42.43;;;15.93;;
77191;SDS011;66172;48.526;8.078;2023-03-04T04:36:51;42.42;;;15.35;;
77191;SDS011;66172;48.526;8.078;2023-03-04T04:39:17;38.60;;;15.07;;
77191;SDS011;66172;48.526;8.078;2023-03-04T04:41:43;41.58;;;15.57;;
77191;SDS011;66172;48.526;8.078;2023-03-04T04:44:11;43.33;;;15.40;;
77191;SDS011;66172;48.526;8.078;2023-03-04T04:46:38;44.17;;;15.18;;
77191;SDS011;66172;48.526;8.078;2023-03-04T04:49:04;43.53;;;15.57;;
77191;SDS011;66172;48.526;8.078;2023-03-04T04:51:31;41.63;;;15.95;;
77191;SDS011;66172;48.526;8.078;2023-03-04T04:53:58;46.47;;;17.27;;
77191;SDS011;66172;48.526;8.078;2023-03-04T04:56:25;46.50;;;16.37;;
77191;SDS011;66172;48.526;8.078;2023-03-04T04:58:53;40.03;;;15.48;;
77191;SDS011;66172;48.526;8.078;2023-03-04T05:01:21;43.97;;;15.63;;
77191;SDS011;66172;48.526;8.078;2023-03-04T05:03:47;40.70;;;15.23;;
77191;SDS011;66172;48.526;8.078;2023-03-04T05:06:15;41.05;;;15.05;;
77191;SDS011;66172;48.526;8.078;2023-03-04T05:08:41;43.53;;;15.33;;
77191;SDS011;66172;48.526;8.078;2023-03-04T05:11:07;41.85;;;14.68;;
77191;SDS011;66172;48.526;8.078;2023-03-04T05:13:33;42.55;;;16.42;;
77191;SDS011;66172;48.526;8.078;2023-03-04T05:16:00;42.75;;;17.70;;
77191;SDS011;66172;48.526;8.078;2023-03-04T05:18:26;46.20;;;18.17;;
77191;SDS011;66172;48.526;8.078;2023-03-04T05:20:53;47.17;;;18.40;;
77191;SDS011;66172;48.526;8.078;2023-03-04T05:23:22;49.10;;;19.15;;
77191;SDS011;66172;48.526;8.078;2023-03-04T05:25:48;43.05;;;17.40;;
77191;SDS011;66172;48.526;8.078;2023-03-04T05:28:14;45.25;;;17.73;;
77191;SDS011;66172;48.526;8.078;2023-03-04T05:30:41;45.00;;;16.50;;
77191;SDS011;66172;48.526;8.078;2023-03-04T05:33:08;45.20;;;17.33;;
77191;SDS011;66172;48.526;8.078;2023-03-04T05:35:35;46.28;;;17.38;;
77191;SDS011;66172;48.526;8.078;2023-03-04T05:38:02;47.78;;;17.73;;
77191;SDS011;66172;48.526;8.078;2023-03-04T05:40:29;43.33;;;16.77;;
77191;SDS011;66172;48.526;8.078;2023-03-04T05:42:55;44.10;;;16.73;;
77191;SDS011;66172;48.526;8.078;2023-03-04T05:45:21;41.67;;;16.73;;
77191;SDS011;66172;48.526;8.078;2023-03-04T05:47:47;49.03;;;17.70;;
77191;SDS011;66172;48.526;8.078;2023-03-04T05:50:13;45.58;;;17.42;;
77191;SDS011;66172;48.526;8.078;2023-03-04T05:52:39;47.15;;;17.55;;
77191;SDS011;66172;48.526;8.078;2023-03-04T05:55:05;45.73;;;16.80;;
77191;SDS011;66172;48.526;8.078;2023-03-04T05:57:31;45.47;;;15.80;;
77191;SDS011;66172;48.526;8.078;2023-03-04T05:59:57;45.25;;;17.35;;
77191;SDS011;66172;48.526;8.078;2023-03-04T06:02:23;49.00;;;17.63;;
77191;SDS011;66172;48.526;8.078;2023-03-04T06:04:49;47.67;;;17.77;;
77191;SDS011;66172;48.526;8.078;2023-03-04T06:07:15;45.00;;;15.73;;
77191;SDS011;66172;48.526;8.078;2023-03-04T06:09:41;47.38;;;18.08;;
77191;SDS011;66172;48.526;8.078;2023-03-04T06:12:12;49.45;;;17.23;;
77191;SDS011;66172;48.526;8.078;2023-03-04T06:14:38;49.73;;;18.53;;
77191;SDS011;66172;48.526;8.078;2023-03-04T06:17:04;50.15;;;19.38;;
77191;SDS011;66172;48.526;8.078;2023-03-04T06:19:30;47.45;;;18.25;;
77191;SDS011;66172;48.526;8.078;2023-03-04T06:21:55;44.13;;;17.90;;
77191;SDS011;66172;48.526;8.078;2023-03-04T06:24:21;46.13;;;16.90;;
77191;SDS011;66172;48.526;8.078;2023-03-04T06:26:47;49.95;;;18.33;;
77191;SDS011;66172;48.526;8.078;2023-03-04T06:29:13;44.78;;;16.92;;
77191;SDS011;66172;48.526;8.078;2023-03-04T06:31:39;44.97;;;17.43;;
77191;SDS011;66172;48.526;8.078;2023-03-04T06:34:07;48.42;;;17.95;;
77191;SDS011;66172;48.526;8.078;2023-03-04T06:36:33;46.63;;;17.15;;
77191;SDS011;66172;48.526;8.078;2023-03-04T06:39:03;47.22;;;17.52;;
77191;SDS011;66172;48.526;8.078;2023-03-04T06:41:30;46.95;;;17.67;;
77191;SDS011;66172;48.526;8.078;2023-03-04T06:43:56;49.13;;;18.13;;
77191;SDS011;66172;48.526;8.078;2023-03-04T06:46:22;45.92;;;17.88;;
77191;SDS011;66172;48.526;8.078;2023-03-04T06:48:48;47.28;;;19.85;;
77191;SDS011;66172;48.526;8.078;2023-03-04T06:51:14;63.50;;;23.75;;
77191;SDS011;66172;48.526;8.078;2023-03-04T06:53:41;69.07;;;27.87;;
77191;SDS011;66172;48.526;8.078;2023-03-04T06:56:08;58.40;;;24.77;;
77191;SDS011;66172;48.526;8.078;2023-03-04T06:58:35;50.67;;;20.38;;
77191;SDS011;66172;48.526;8.078;2023-03-04T07:03:56;47.35;;;19.00;;
77191;SDS011;66172;48.526;8.078;2023-03-04T07:06:23;43.43;;;16.40;;
77191;SDS011;66172;48.526;8.078;2023-03-04T07:08:51;47.05;;;17.38;;
77191;SDS011;66172;48.526;8.078;2023-03-04T07:11:17;51.05;;;20.02;;
77191;SDS011;66172;48.526;8.078;2023-03-04T07:13:44;50.67;;;18.88;;
77191;SDS011;66172;48.526;8.078;2023-03-04T07:16:11;51.83;;;20.10;;
77191;SDS011;66172;48.526;8.078;2023-03-04T07:18:38;54.00;;;20.70;;
77191;SDS011;66172;48.526;8.078;2023-03-04T07:21:04;59.58;;;21.35;;
77191;SDS011;66172;48.526;8.078;2023-03-04T07:23:31;52.00;;;20.83;;
77191;SDS011;66172;48.526;8.078;2023-03-04T07:25:57;49.17;;;19.17;;
77191;SDS011;66172;48.526;8.078;2023-03-04T07:28:23;54.50;;;19.83;;
77191;SDS011;66172;48.526;8.078;2023-03-04T07:30:49;50.80;;;18.63;;
77191;SDS011;66172;48.526;8.078;2023-03-04T07:33:15;46.17;;;18.50;;
77191;SDS011;66172;48.526;8.078;2023-03-04T07:35:41;44.58;;;17.90;;
77191;SDS011;66172;48.526;8.078;2023-03-04T07:38:07;43.07;;;17.30;;
77191;SDS011;66172;48.526;8.078;2023-03-04T07:40:33;43.83;;;18.48;;
77191;SDS011;66172;48.526;8.078;2023-03-04T07:42:59;48.35;;;18.92;;
77191;SDS011;66172;48.526;8.078;2023-03-04T07:45:25;40.50;;;17.67;;
77191;SDS011;66172;48.526;8.078;2023-03-04T07:47:51;43.27;;;18.13;;
77191;SDS011;66172;48.526;8.078;2023-03-04T07:50:17;41.40;;;18.13;;
77191;SDS011;66172;48.526;8.078;2023-03-04T07:52:44;39.58;;;19.27;;
77191;SDS011;66172;48.526;8.078;2023-03-04T07:55:12;43.78;;;19.67;;
77191;SDS011;66172;48.526;8.078;2023-03-04T07:57:43;41.47;;;19.07;;
77191;SDS011;66172;48.526;8.078;2023-03-04T08:00:11;40.25;;;19.23;;
77191;SDS011;66172;48.526;8.078;2023-03-04T08:02:39;38.95;;;18.55;;
77191;SDS011;66172;48.526;8.078;2023-03-04T08:05:05;42.78;;;19.17;;
77191;SDS011;66172;48.526;8.078;2023-03-04T08:07:32;38.95;;;18.35;;
77191;SDS011;66172;48.526;8.078;2023-03-04T08:09:58;37.13;;;17.43;;
77191;SDS011;66172;48.526;8.078;2023-03-04T08:12:23;37.10;;;18.00;;
77191;SDS011;66172;48.526;8.078;2023-03-04T08:14:50;42.10;;;18.48;;
77191;SDS011;66172;48.526;8.078;2023-03-04T08:17:16;42.42;;;19.88;;
77191;SDS011;66172;48.526;8.078;2023-03-04T08:19:42;47.97;;;21.25;;
77191;SDS011;66172;48.526;8.078;2023-03-04T08:22:08;44.73;;;20.87;;
77191;SDS011;66172;48.526;8.078;2023-03-04T08:24:34;45.17;;;21.33;;
77191;SDS011;66172;48.526;8.078;2023-03-04T08:27:00;43.92;;;20.88;;
77191;SDS011;66172;48.526;8.078;2023-03-04T08:29:26;41.10;;;19.80;;
77191;SDS011;66172;48.526;8.078;2023-03-04T08:31:52;41.35;;;18.48;;
77191;SDS011;66172;48.526;8.078;2023-03-04T08:34:20;41.38;;;17.40;;
77191;SDS011;66172;48.526;8.078;2023-03-04T08:36:48;36.85;;;17.75;;
77191;SDS011;66172;48.526;8.078;2023-03-04T08:39:14;36.15;;;17.60;;
77191;SDS011;66172;48.526;8.078;2023-03-04T08:41:41;38.03;;;17.33;;
77191;SDS011;66172;48.526;8.078;2023-03-04T08:44:08;43.83;;;18.08;;
77191;SDS011;66172;48.526;8.078;2023-03-04T08:46:35;43.55;;;19.23;;
77191;SDS011;66172;48.526;8.078;2023-03-04T08:49:02;41.35;;;17.83;;
77191;SDS011;66172;48.526;8.078;2023-03-04T08:51:29;40.33;;;17.55;;
77191;SDS011;66172;48.526;8.078;2023-03-04T08:53:55;41.73;;;18.33;;
77191;SDS011;66172;48.526;8.078;2023-03-04T08:56:21;43.95;;;18.55;;
77191;SDS011;66172;48.526;8.078;2023-03-04T08:58:47;40.90;;;16.92;;
77191;SDS011;66172;48.526;8.078;2023-03-04T09:01:13;39.13;;;16.60;;
77191;SDS011;66172;48.526;8.078;2023-03-04T09:03:40;41.92;;;17.35;;
77191;SDS011;66172;48.526;8.078;2023-03-04T09:06:08;41.92;;;17.83;;
77191;SDS011;66172;48.526;8.078;2023-03-04T09:08:36;43.63;;;17.88;;
77191;SDS011;66172;48.526;8.078;2023-03-04T09:11:02;46.33;;;18.50;;
77191;SDS011;66172;48.526;8.078;2023-03-04T09:13:29;42.17;;;17.53;;
77191;SDS011;66172;48.526;8.078;2023-03-04T09:15:56;43.15;;;17.42;;
77191;SDS011;66172;48.526;8.078;2023-03-04T09:18:22;38.53;;;18.10;;
77191;SDS011;66172;48.526;8.078;2023-03-04T09:20:49;41.13;;;18.98;;
77191;SDS011;66172;48.526;8.078;2023-03-04T09:23:15;43.53;;;19.23;;
77191;SDS011;66172;48.526;8.078;2023-03-04T09:25:42;35.33;;;16.60;;
77191;SDS011;66172;48.526;8.078;2023-03-04T09:28:09;39.25;;;17.35;;
77191;SDS011;66172;48.526;8.078;2023-03-04T09:30:35;41.08;;;18.50;;
77191;SDS011;66172;48.526;8.078;2023-03-04T09:33:01;39.78;;;17.98;;
77191;SDS011;66172;48.526;8.078;2023-03-04T09:35:27;37.67;;;17.03;;
77191;SDS011;66172;48.526;8.078;2023-03-04T09:37:54;42.17;;;18.10;;
77191;SDS011;66172;48.526;8.078;2023-03-04T09:40:22;39.28;;;18.92;;
77191;SDS011;66172;48.526;8.078;2023-03-04T09:42:53;38.20;;;19.08;;
77191;SDS011;66172;48.526;8.078;2023-03-04T09:45:24;36.08;;;17.27;;
77191;SDS011;66172;48.526;8.078;2023-03-04T09:47:54;33.47;;;16.90;;
77191;SDS011;66172;48.526;8.078;2023-03-04T09:50:21;35.55;;;17.48;;
77191;SDS011;66172;48.526;8.078;2023-03-04T10:00:41;31.43;;;15.83;;
77191;SDS011;66172;48.526;8.078;2023-03-04T10:08:30;29.75;;;15.25;;
77191;SDS011;66172;48.526;8.078;2023-03-04T10:10:59;25.63;;;14.68;;
77191;SDS011;66172;48.526;8.078;2023-03-04T10:13:34;30.00;;;15.30;;
77191;SDS011;66172;48.526;8.078;2023-03-04T10:16:05;29.13;;;14.88;;
77191;SDS011;66172;48.526;8.078;2023-03-04T10:18:38;28.65;;;15.27;;
77191;SDS011;66172;48.526;8.078;2023-03-04T10:21:22;29.65;;;15.70;;
77191;SDS011;66172;48.526;8.078;2023-03-04T10:23:54;28.60;;;15.68;;
77191;SDS011;66172;48.526;8.078;2023-03-04T10:26:21;27.23;;;14.27;;
77191;SDS011;66172;48.526;8.078;2023-03-04T10:28:47;28.25;;;14.43;;
77191;SDS011;66172;48.526;8.078;2023-03-04T10:31:16;29.50;;;15.10;;
77191;SDS011;66172;48.526;8.078;2023-03-04T10:33:54;27.13;;;14.02;;
77191;SDS011;66172;48.526;8.078;2023-03-04T10:39:08;27.27;;;13.90;;
77191;SDS011;66172;48.526;8.078;2023-03-04T10:41:43;29.88;;;14.52;;
77191;SDS011;66172;48.526;8.078;2023-03-04T10:44:16;28.02;;;13.73;;
77191;SDS011;66172;48.526;8.078;2023-03-04T10:46:46;26.15;;;14.10;;
77191;SDS011;66172;48.526;8.078;2023-03-04T10:49:15;26.67;;;13.00;;
77191;SDS011;66172;48.526;8.078;2023-03-04T10:51:52;27.30;;;13.52;;
77191;SDS011;66172;48.526;8.078;2023-03-04T10:54:21;30.02;;;16.35;;
77191;SDS011;66172;48.526;8.078;2023-03-04T10:56:57;34.75;;;17.67;;
77191;SDS011;66172;48.526;8.078;2023-03-04T10:59:30;36.05;;;19.33;;
77191;SDS011;66172;48.526;8.078;2023-03-04T11:10:38;31.25;;;16.35;;
77191;SDS011;66172;48.526;8.078;2023-03-04T11:15:47;30.90;;;16.07;;
77191;SDS011;66172;48.526;8.078;2023-03-04T11:18:16;32.35;;;17.77;;
77191;SDS011;66172;48.526;8.078;2023-03-04T11:20:47;36.92;;;19.33;;
77191;SDS011;66172;48.526;8.078;2023-03-04T11:23:15;38.63;;;19.13;;
77191;SDS011;66172;48.526;8.078;2023-03-04T11:25:48;39.75;;;20.27;;
77191;SDS011;66172;48.526;8.078;2023-03-04T11:28:19;37.87;;;19.97;;
77191;SDS011;66172;48.526;8.078;2023-03-04T11:30:56;38.20;;;19.27;;
77191;SDS011;66172;48.526;8.078;2023-03-04T11:39:13;36.22;;;19.20;;
77191;SDS011;66172;48.526;8.078;2023-03-04T11:41:59;38.93;;;19.87;;
77191;SDS011;66172;48.526;8.078;2023-03-04T11:44:29;37.33;;;19.05;;
77191;SDS011;66172;48.526;8.078;2023-03-04T11:47:01;38.25;;;18.77;;
77191;SDS011;66172;48.526;8.078;2023-03-04T12:00:32;36.47;;;18.40;;
77191;SDS011;66172;48.526;8.078;2023-03-04T12:03:19;36.78;;;18.25;;
77191;SDS011;66172;48.526;8.078;2023-03-04T12:06:04;38.65;;;18.80;;
77191;SDS011;66172;48.526;8.078;2023-03-04T12:19:54;38.85;;;19.90;;
77191;SDS011;66172;48.526;8.078;2023-03-04T12:25:14;37.88;;;18.30;;
77191;SDS011;66172;48.526;8.078;2023-03-04T12:28:03;38.15;;;18.10;;
77191;SDS011;66172;48.526;8.078;2023-03-04T12:36:40;38.37;;;17.13;;
77191;SDS011;66172;48.526;8.078;2023-03-04T12:45:14;41.90;;;16.13;;
77191;SDS011;66172;48.526;8.078;2023-03-04T12:50:35;41.20;;;17.53;;
77191;SDS011;66172;48.526;8.078;2023-03-04T12:53:10;37.50;;;17.20;;
77191;SDS011;66172;48.526;8.078;2023-03-04T12:55:55;41.20;;;17.23;;
77191;SDS011;66172;48.526;8.078;2023-03-04T12:58:26;40.35;;;16.77;;
77191;SDS011;66172;48.526;8.078;2023-03-04T13:01:00;39.80;;;16.92;;
77191;SDS011;66172;48.526;8.078;2023-03-04T13:06:35;41.08;;;17.15;;
77191;SDS011;66172;48.526;8.078;2023-03-04T13:11:54;37.13;;;16.85;;
77191;SDS011;66172;48.526;8.078;2023-03-04T13:14:29;42.53;;;17.88;;
77191;SDS011;66172;48.526;8.078;2023-03-04T13:16:57;38.93;;;16.83;;
77191;SDS011;66172;48.526;8.078;2023-03-04T13:38:20;41.72;;;16.80;;
77191;SDS011;66172;48.526;8.078;2023-03-04T13:43:53;41.67;;;17.57;;
77191;SDS011;66172;48.526;8.078;2023-03-04T13:51:26;40.83;;;16.65;;
77191;SDS011;66172;48.526;8.078;2023-03-04T13:56:38;44.13;;;17.58;;
77191;SDS011;66172;48.526;8.078;2023-03-04T14:01:33;41.75;;;16.63;;
77191;SDS011;66172;48.526;8.078;2023-03-04T14:04:09;43.50;;;16.67;;
77191;SDS011;66172;48.526;8.078;2023-03-04T14:06:41;47.10;;;16.33;;
77191;SDS011;66172;48.526;8.078;2023-03-04T14:09:12;40.13;;;15.68;;
77191;SDS011;66172;48.526;8.078;2023-03-04T14:11:39;38.60;;;16.02;;
77191;SDS011;66172;48.526;8.078;2023-03-04T14:14:11;44.47;;;16.50;;
77191;SDS011;66172;48.526;8.078;2023-03-04T14:16:49;41.00;;;16.35;;
77191;SDS011;66172;48.526;8.078;2023-03-04T14:19:24;44.27;;;16.27;;
77191;SDS011;66172;48.526;8.078;2023-03-04T14:21:52;41.70;;;17.15;;
77191;SDS011;66172;48.526;8.078;2023-03-04T14:24:19;42.70;;;17.00;;
77191;SDS011;66172;48.526;8.078;2023-03-04T14:26:46;43.25;;;16.52;;
77191;SDS011;66172;48.526;8.078;2023-03-04T14:31:50;43.00;;;15.97;;
77191;SDS011;66172;48.526;8.078;2023-03-04T14:34:23;41.13;;;16.42;;
77191;SDS011;66172;48.526;8.078;2023-03-04T14:36:53;42.30;;;16.95;;
77191;SDS011;66172;48.526;8.078;2023-03-04T14:39:19;45.22;;;16.85;;
77191;SDS011;66172;48.526;8.078;2023-03-04T14:41:49;46.22;;;17.60;;
77191;SDS011;66172;48.526;8.078;2023-03-04T14:46:57;44.30;;;16.38;;
77191;SDS011;66172;48.526;8.078;2023-03-04T14:49:26;39.78;;;15.82;;
77191;SDS011;66172;48.526;8.078;2023-03-04T14:51:53;39.95;;;15.45;;
77191;SDS011;66172;48.526;8.078;2023-03-04T14:56:52;40.57;;;15.67;;
77191;SDS011;66172;48.526;8.078;2023-03-04T14:59:26;40.63;;;15.60;;
77191;SDS011;66172;48.526;8.078;2023-03-04T15:04:59;39.05;;;15.10;;
77191;SDS011;66172;48.526;8.078;2023-03-04T15:07:34;40.10;;;14.57;;
77191;SDS011;66172;48.526;8.078;2023-03-04T15:10:06;44.25;;;16.35;;
77191;SDS011;66172;48.526;8.078;2023-03-04T15:12:35;41.33;;;15.93;;
77191;SDS011;66172;48.526;8.078;2023-03-04T15:15:28;42.55;;;15.45;;
77191;SDS011;66172;48.526;8.078;2023-03-04T15:17:57;41.80;;;16.27;;
77191;SDS011;66172;48.526;8.078;2023-03-04T15:20:26;37.57;;;15.47;;
77191;SDS011;66172;48.526;8.078;2023-03-04T15:25:19;35.35;;;14.38;;
77191;SDS011;66172;48.526;8.078;2023-03-04T15:27:46;42.42;;;15.85;;
77191;SDS011;66172;48.526;8.078;2023-03-04T15:30:17;41.90;;;14.63;;
77191;SDS011;66172;48.526;8.078;2023-03-04T15:32:46;42.75;;;14.50;;
77191;SDS011;66172;48.526;8.078;2023-03-04T15:35:13;42.28;;;14.93;;
77191;SDS011;66172;48.526;8.078;2023-03-04T15:37:41;41.58;;;15.07;;
77191;SDS011;66172;48.526;8.078;2023-03-04T15:40:12;40.20;;;14.43;;
77191;SDS011;66172;48.526;8.078;2023-03-04T15:42:42;39.80;;;14.50;;
77191;SDS011;66172;48.526;8.078;2023-03-04T15:45:11;44.20;;;14.27;;
77191;SDS011;66172;48.526;8.078;2023-03-04T15:47:46;36.75;;;13.40;;
77191;SDS011;66172;48.526;8.078;2023-03-04T15:50:12;40.03;;;14.55;;
77191;SDS011;66172;48.526;8.078;2023-03-04T15:52:37;41.20;;;15.17;;
77191;SDS011;66172;48.526;8.078;2023-03-04T15:55:08;42.83;;;14.50;;
77191;SDS011;66172;48.526;8.078;2023-03-04T15:57:39;40.15;;;13.85;;
77191;SDS011;66172;48.526;8.078;2023-03-04T16:00:05;40.60;;;14.00;;
77191;SDS011;66172;48.526;8.078;2023-03-04T16:02:31;35.35;;;13.40;;
77191;SDS011;66172;48.526;8.078;2023-03-04T16:04:57;38.53;;;13.23;;
77191;SDS011;66172;48.526;8.078;2023-03-04T16:07:23;40.08;;;14.07;;
77191;SDS011;66172;48.526;8.078;2023-03-04T16:09:57;38.80;;;13.13;;
77191;SDS011;66172;48.526;8.078;2023-03-04T16:12:27;44.03;;;14.40;;
77191;SDS011;66172;48.526;8.078;2023-03-04T16:14:53;38.37;;;13.60;;
77191;SDS011;66172;48.526;8.078;2023-03-04T16:17:19;40.35;;;14.02;;
77191;SDS011;66172;48.526;8.078;2023-03-04T16:19:45;41.60;;;13.20;;
77191;SDS011;66172;48.526;8.078;2023-03-04T16:22:15;40.60;;;15.35;;
77191;SDS011;66172;48.526;8.078;2023-03-04T16:24:44;37.25;;;13.55;;
77191;SDS011;66172;48.526;8.078;2023-03-04T16:27:10;43.37;;;15.50;;
77191;SDS011;66172;48.526;8.078;2023-03-04T16:29:38;37.97;;;13.45;;
77191;SDS011;66172;48.526;8.078;2023-03-04T16:32:04;36.38;;;13.98;;
77191;SDS011;66172;48.526;8.078;2023-03-04T16:34:31;39.47;;;13.52;;
77191;SDS011;66172;48.526;8.078;2023-03-04T16:36:57;37.90;;;13.53;;